createdAt,value
2023-02-06T00:00:47.656Z,101698.22
2023-02-06T00:02:50.933Z,101698.22
2023-02-06T00:04:53.836Z,101696.28
2023-02-06T00:06:56.676Z,101690.25
2023-02-06T00:08:59.584Z,101684.81
2023-02-06T00:11:05.796Z,101677.59
2023-02-06T00:13:08.933Z,101684.81
2023-02-06T00:15:11.755Z,101676.81
2023-02-06T00:17:14.635Z,101666.09
2023-02-06T00:19:17.477Z,101661.47
2023-02-06T00:21:22.476Z,101653.63
2023-02-06T00:23:25.769Z,101661.25
2023-02-06T00:25:28.801Z,101664.81
2023-02-06T00:27:33.756Z,101670.63
2023-02-06T00:29:36.723Z,101664.50
2023-02-06T00:31:39.596Z,101667.22
2023-02-06T00:33:43.668Z,101661.19
2023-02-06T00:35:46.443Z,101655.94
2023-02-06T00:37:49.740Z,101645.28
2023-02-06T00:39:52.632Z,101649.53
2023-02-06T00:41:56.159Z,101665.13
2023-02-06T00:44:00.663Z,101654.72
2023-02-06T00:46:03.874Z,101650.44
2023-02-06T00:48:07.081Z,101654.72
2023-02-06T00:50:10.590Z,101644.91
2023-02-06T00:52:13.561Z,101648.41
2023-02-06T00:54:17.091Z,101633.63
2023-02-06T00:56:20.290Z,101630.47
2023-02-06T00:58:23.291Z,101640.50
2023-02-06T01:00:27.621Z,101636.16
2023-02-06T01:02:30.625Z,101641.81
2023-02-06T01:04:34.626Z,101643.28
2023-02-06T01:06:37.681Z,101650.31
2023-02-06T01:08:40.758Z,101642.28
2023-02-06T01:10:44.441Z,101637.03
2023-02-06T01:12:47.398Z,101634.41
2023-02-06T01:14:50.315Z,101627.22
2023-02-06T01:16:54.737Z,101618.38
2023-02-06T01:18:57.754Z,101631.50
2023-02-06T01:21:00.794Z,101636.91
2023-02-06T01:23:03.997Z,101634.97
2023-02-06T01:25:08.041Z,101636.66
2023-02-06T01:27:11.273Z,101636.56
2023-02-06T01:29:14.153Z,101639.28
2023-02-06T01:31:19.507Z,101627.97
2023-02-06T01:33:23.941Z,101617.50
2023-02-06T01:35:28.225Z,101624.41
2023-02-06T01:37:31.075Z,101631.50
2023-02-06T01:39:34.136Z,101622.75
2023-02-06T01:41:37.040Z,101626.25
2023-02-06T01:43:42.113Z,101613.13
2023-02-06T01:45:46.396Z,101610.66
2023-02-06T01:47:51.055Z,101603.91
2023-02-06T01:49:57.134Z,101604.00
2023-02-06T01:52:05.084Z,101588.53
2023-02-06T01:54:09.393Z,101591.34
2023-02-06T01:56:13.352Z,101586.66
2023-02-06T01:58:19.714Z,101594.06
2023-02-06T02:00:23.232Z,101582.94
2023-02-06T02:02:28.903Z,101574.38
2023-02-06T02:04:32.392Z,101578.06
2023-02-06T02:06:36.942Z,101573.13
2023-02-06T02:08:45.424Z,101580.13
2023-02-06T02:10:48.666Z,101573.97
2023-02-06T02:12:52.014Z,101576.66
2023-02-06T02:14:55.967Z,101572.56
2023-02-06T02:17:10.438Z,101580.88
2023-02-06T02:19:45.537Z,101581.94
2023-02-06T02:22:35.238Z,101582.22
2023-02-06T02:25:03.158Z,101575.59
2023-02-06T02:27:45.218Z,101575.03
2023-02-06T02:30:13.495Z,101572.16
2023-02-06T02:32:48.160Z,101571.31
2023-02-06T02:35:16.440Z,101571.88
2023-02-06T02:37:28.452Z,101575.56
2023-02-06T02:39:44.720Z,101576.53
2023-02-06T02:41:56.762Z,101582.75
2023-02-06T02:44:08.440Z,101579.44
2023-02-06T02:46:19.404Z,101570.88
2023-02-06T02:48:27.048Z,101563.94
2023-02-06T02:50:33.197Z,101572.84
2023-02-06T02:52:36.137Z,101569.44
2023-02-06T02:54:39.159Z,101566.16
2023-02-06T02:56:43.116Z,101561.72
2023-02-06T02:58:49.277Z,101556.47
2023-02-06T03:00:55.854Z,101559.25
2023-02-06T03:02:59.667Z,101550.59
2023-02-06T03:05:08.355Z,101554.00
2023-02-06T03:07:25.114Z,101557.53
2023-02-06T03:09:45.813Z,101556.09
2023-02-06T03:12:00.193Z,101548.84
2023-02-06T03:14:10.920Z,101540.94
2023-02-06T03:16:19.371Z,101559.97
2023-02-06T03:18:29.953Z,101565.09
2023-02-06T03:20:33.844Z,101570.25
2023-02-06T03:22:41.416Z,101565.72
2023-02-06T03:24:47.875Z,101562.31
2023-02-06T03:26:58.874Z,101560.47
2023-02-06T03:29:05.357Z,101566.66
2023-02-06T03:31:12.196Z,101570.69
2023-02-06T03:33:19.075Z,101573.91
2023-02-06T03:35:26.244Z,101571.09
2023-02-06T03:37:30.200Z,101579.66
2023-02-06T03:39:35.036Z,101583.19
2023-02-06T03:41:39.838Z,101587.84
2023-02-06T03:43:45.562Z,101577.91
2023-02-06T03:45:51.027Z,101580.22
2023-02-06T03:47:58.515Z,101580.13
2023-02-06T03:50:02.636Z,101571.22
2023-02-06T03:52:08.695Z,101575.41
2023-02-06T03:54:14.600Z,101577.22
2023-02-06T03:56:27.128Z,101569.50
2023-02-06T03:58:30.500Z,101573.81
2023-02-06T04:00:34.688Z,101571.00
2023-02-06T04:02:38.793Z,101573.47
2023-02-06T04:04:43.319Z,101564.78
2023-02-06T04:06:46.461Z,101569.22
2023-02-06T04:08:49.389Z,101562.38
2023-02-06T04:10:52.283Z,101565.78
2023-02-06T04:12:57.030Z,101551.75
2023-02-06T04:14:59.890Z,101557.91
2023-02-06T04:17:03.080Z,101556.91
2023-02-06T04:19:05.940Z,101557.78
2023-02-06T04:21:09.169Z,101556.00
2023-02-06T04:23:12.160Z,101552.16
2023-02-06T04:25:15.290Z,101558.72
2023-02-06T04:27:19.044Z,101555.84
2023-02-06T04:29:23.560Z,101564.44
2023-02-06T04:31:26.722Z,101558.13
2023-02-06T04:33:29.771Z,101565.09
2023-02-06T04:35:33.003Z,101563.38
2023-02-06T04:37:36.442Z,101559.19
2023-02-06T04:39:39.620Z,101546.59
2023-02-06T04:41:42.724Z,101553.31
2023-02-06T04:43:45.600Z,101553.19
2023-02-06T04:45:50.090Z,101555.03
2023-02-06T04:47:53.400Z,101540.66
2023-02-06T04:49:56.322Z,101546.47
2023-02-06T04:51:59.163Z,101547.13
2023-02-06T04:54:02.211Z,101551.34
2023-02-06T04:56:06.373Z,101557.25
2023-02-06T04:58:09.562Z,101550.97
2023-02-06T05:00:14.967Z,101550.91
2023-02-06T05:02:19.531Z,101552.66
2023-02-06T05:04:22.440Z,101552.38
2023-02-06T05:06:25.399Z,101555.72
2023-02-06T05:08:28.496Z,101552.88
2023-02-06T05:10:31.645Z,101555.41
2023-02-06T05:12:34.744Z,101557.88
2023-02-06T05:14:37.755Z,101556.81
2023-02-06T05:16:40.690Z,101555.91
2023-02-06T05:18:45.794Z,101551.66
2023-02-06T05:20:48.833Z,101554.72
2023-02-06T05:22:51.753Z,101550.88
2023-02-06T05:24:54.688Z,101551.44
2023-02-06T05:26:58.716Z,101553.81
2023-02-06T05:29:01.633Z,101560.63
2023-02-06T05:31:05.658Z,101562.19
2023-02-06T05:33:08.835Z,101563.03
2023-02-06T05:35:13.393Z,101558.56
2023-02-06T05:37:16.306Z,101561.09
2023-02-06T05:39:19.324Z,101560.25
2023-02-06T05:41:22.194Z,101556.81
2023-02-06T05:43:25.586Z,101561.03
2023-02-06T05:45:28.516Z,101561.03
2023-02-06T05:47:31.600Z,101567.22
2023-02-06T05:49:34.426Z,101563.66
2023-02-06T05:51:38.915Z,101562.75
2023-02-06T05:53:41.916Z,101561.03
2023-02-06T05:55:45.310Z,101570.75
2023-02-06T05:57:48.125Z,101568.97
2023-02-06T05:59:51.190Z,101571.69
2023-02-06T06:01:54.518Z,101569.97
2023-02-06T06:03:57.527Z,101567.13
2023-02-06T06:06:00.966Z,101563.91
2023-02-06T06:08:05.646Z,101575.31
2023-02-06T06:10:09.640Z,101573.75
2023-02-06T06:12:12.712Z,101568.53
2023-02-06T06:14:15.660Z,101574.78
2023-02-06T06:16:18.992Z,101570.81
2023-02-06T06:18:22.163Z,101569.34
2023-02-06T06:20:25.243Z,101563.94
2023-02-06T06:22:28.231Z,101569.56
2023-02-06T06:24:32.881Z,101569.19
2023-02-06T06:26:36.041Z,101578.56
2023-02-06T06:28:39.565Z,101582.19
2023-02-06T06:30:42.891Z,101578.50
2023-02-06T06:32:46.016Z,101584.69
2023-02-06T06:34:49.082Z,101585.69
2023-02-06T06:36:52.043Z,101578.72
2023-02-06T06:38:55.280Z,101576.97
2023-02-06T06:40:59.693Z,101580.44
2023-02-06T06:43:02.591Z,101579.44
2023-02-06T06:45:06.643Z,101585.53
2023-02-06T06:47:11.124Z,101574.81
2023-02-06T06:49:14.199Z,101581.69
2023-02-06T06:51:17.213Z,101585.00
2023-02-06T06:53:20.180Z,101584.06
2023-02-06T06:55:23.159Z,101581.41
2023-02-06T06:57:30.400Z,101578.59
2023-02-06T06:59:33.320Z,101577.53
2023-02-06T07:01:36.439Z,101580.06
2023-02-06T07:03:39.322Z,101571.13
2023-02-06T07:05:42.280Z,101578.81
2023-02-06T07:07:45.280Z,101579.59
2023-02-06T07:09:48.280Z,101580.47
2023-02-06T07:11:51.138Z,101579.38
2023-02-06T07:13:55.881Z,101575.59
2023-02-06T07:15:58.893Z,101585.94
2023-02-06T07:18:02.004Z,101575.16
2023-02-06T07:20:05.681Z,101583.63
2023-02-06T07:22:08.840Z,101579.06
2023-02-06T07:24:11.768Z,101584.22
2023-02-06T07:26:14.763Z,101576.22
2023-02-06T07:28:17.733Z,101582.16
2023-02-06T07:30:22.489Z,101579.28
2023-02-06T07:32:25.331Z,101586.78
2023-02-06T07:34:28.494Z,101585.59
2023-02-06T07:36:31.720Z,101585.97
2023-02-06T07:38:34.699Z,101592.75
2023-02-06T07:40:44.947Z,101588.50
2023-02-06T07:42:48.887Z,101582.00
2023-02-06T07:45:00.215Z,101579.38
2023-02-06T07:47:06.000Z,101586.84
2023-02-06T07:49:09.168Z,101589.16
2023-02-06T07:51:12.120Z,101587.56
2023-02-06T07:53:14.963Z,101583.25
2023-02-06T07:55:18.279Z,101579.09
2023-02-06T07:57:21.163Z,101586.63
2023-02-06T07:59:24.121Z,101578.34
2023-02-06T08:01:27.388Z,101582.41
2023-02-06T08:03:32.340Z,101583.34
2023-02-06T08:05:39.485Z,101589.38
2023-02-06T08:07:42.640Z,101591.00
2023-02-06T08:09:45.553Z,101588.09
2023-02-06T08:11:48.494Z,101585.56
2023-02-06T08:13:51.590Z,101589.44
2023-02-06T08:15:54.605Z,101592.16
2023-02-06T08:17:57.484Z,101591.66
2023-02-06T08:20:02.053Z,101591.84
2023-02-06T08:22:04.930Z,101597.78
2023-02-06T08:24:09.920Z,101603.78
2023-02-06T08:26:14.739Z,101594.94
2023-02-06T08:28:17.809Z,101601.28
2023-02-06T08:30:20.801Z,101598.09
2023-02-06T08:32:23.689Z,101594.25
2023-02-06T08:34:26.652Z,101592.56
2023-02-06T08:36:34.141Z,101587.09
2023-02-06T08:38:37.848Z,101588.66
2023-02-06T08:40:40.759Z,101594.56
2023-02-06T08:42:43.654Z,101590.88
2023-02-06T08:44:46.610Z,101591.84
2023-02-06T08:46:52.351Z,101588.66
2023-02-06T08:48:57.920Z,101587.41
2023-02-06T08:51:05.723Z,101591.38
2023-02-06T08:53:10.120Z,101584.69
2023-02-06T08:55:13.040Z,101589.31
2023-02-06T08:57:15.960Z,101585.22
2023-02-06T08:59:20.182Z,101585.91
2023-02-06T09:01:23.302Z,101592.91
2023-02-06T09:03:27.523Z,101586.00
2023-02-06T09:05:30.624Z,101593.84
2023-02-06T09:07:33.521Z,101592.72
2023-02-06T09:09:38.176Z,101588.34
2023-02-06T09:11:41.481Z,101584.78
2023-02-06T09:13:46.475Z,101594.00
2023-02-06T09:15:53.957Z,101590.59
2023-02-06T09:17:56.880Z,101593.13
2023-02-06T09:20:00.191Z,101599.66
2023-02-06T09:22:03.118Z,101597.34
2023-02-06T09:24:09.325Z,101603.28
2023-02-06T09:26:15.156Z,101596.63
2023-02-06T09:28:18.414Z,101610.72
2023-02-06T09:30:21.888Z,101600.75
2023-02-06T09:32:24.949Z,101612.03
2023-02-06T09:34:28.519Z,101616.19
2023-02-06T09:36:34.157Z,101612.38
2023-02-06T09:38:40.212Z,101608.28
2023-02-06T09:40:43.123Z,101607.63
2023-02-06T09:42:48.874Z,101615.25
2023-02-06T09:44:54.432Z,101615.56
2023-02-06T09:47:02.435Z,101614.91
2023-02-06T09:49:11.480Z,101609.31
2023-02-06T09:51:19.683Z,101616.72
2023-02-06T09:53:30.455Z,101617.69
2023-02-06T09:55:40.695Z,101616.84
2023-02-06T09:57:58.153Z,101618.03
2023-02-06T10:00:04.886Z,101610.56
2023-02-06T10:02:31.443Z,101613.13
2023-02-06T10:04:45.873Z,101619.13
2023-02-06T10:06:54.444Z,101612.91
2023-02-06T10:09:02.524Z,101608.16
2023-02-06T10:11:11.878Z,101611.56
2023-02-06T10:13:22.874Z,101614.41
2023-02-06T10:15:31.715Z,101607.66
2023-02-06T10:17:38.353Z,101614.00
2023-02-06T10:19:44.315Z,101609.34
2023-02-06T10:21:52.557Z,101617.34
2023-02-06T10:24:00.876Z,101601.63
2023-02-06T10:26:08.245Z,101600.69
2023-02-06T10:28:23.231Z,101601.47
2023-02-06T10:30:43.667Z,101597.66
2023-02-06T10:32:56.579Z,101603.53
2023-02-06T10:35:14.483Z,101595.03
2023-02-06T10:37:54.237Z,101593.53
2023-02-06T10:40:11.439Z,101596.84
2023-02-06T10:42:22.903Z,101594.75
2023-02-06T10:44:32.640Z,101586.53
2023-02-06T10:46:44.314Z,101590.00
2023-02-06T10:56:14.263Z,101572.53
2023-02-06T10:58:20.989Z,101562.38
2023-02-06T11:00:28.429Z,101562.75
2023-02-06T11:02:43.466Z,101566.31
2023-02-06T11:04:52.070Z,101564.09
2023-02-06T11:06:59.847Z,101566.88
2023-02-06T11:09:02.826Z,101572.56
2023-02-06T11:11:19.591Z,101565.50
2023-02-06T11:13:27.668Z,101557.31
2023-02-06T11:15:36.081Z,101561.56
2023-02-06T11:17:39.351Z,101552.34
2023-02-06T11:19:46.830Z,101555.00
2023-02-06T11:21:54.856Z,101540.19
2023-02-06T11:24:10.199Z,101557.78
2023-02-06T11:26:16.106Z,101558.03
2023-02-06T11:28:23.498Z,101570.38
2023-02-06T11:30:35.475Z,101568.66
2023-02-06T11:32:41.774Z,101563.44
2023-02-06T11:34:53.918Z,101564.78
2023-02-06T11:36:59.640Z,101561.81
2023-02-06T11:39:07.284Z,101560.00
2023-02-06T11:41:18.938Z,101553.63
2023-02-06T11:43:24.066Z,101557.47
2023-02-06T11:45:30.097Z,101552.88
2023-02-06T11:47:37.918Z,101561.38
2023-02-06T11:49:41.118Z,101558.94
2023-02-06T11:51:49.019Z,101561.38
2023-02-06T11:53:57.270Z,101559.47
2023-02-06T11:56:04.365Z,101557.50
2023-02-06T11:58:21.913Z,101557.22
2023-02-06T12:00:25.180Z,101562.69
2023-02-06T12:02:31.838Z,101551.97
2023-02-06T12:04:39.118Z,101551.09
2023-02-06T12:06:42.388Z,101549.75
2023-02-06T12:08:49.390Z,101556.91
2023-02-06T12:10:57.650Z,101550.69
2023-02-06T12:13:09.830Z,101560.50
2023-02-06T12:15:39.837Z,101559.03
2023-02-06T12:17:41.386Z,101558.41
2023-02-06T12:19:51.402Z,101557.53
2023-02-06T12:21:58.860Z,101560.72
2023-02-06T12:24:05.705Z,101559.38
2023-02-06T12:26:12.267Z,101557.88
2023-02-06T12:28:20.395Z,101560.94
2023-02-06T12:30:39.413Z,101552.28
2023-02-06T12:32:47.785Z,101557.38
2023-02-06T12:34:55.383Z,101555.44
2023-02-06T12:37:14.720Z,101554.75
2023-02-06T12:39:21.553Z,101544.53
2023-02-06T12:41:43.781Z,101544.94
2023-02-06T12:43:53.421Z,101547.13
2023-02-06T12:46:02.059Z,101547.66
2023-02-06T12:48:13.335Z,101543.41
2023-02-06T12:50:23.394Z,101541.31
2023-02-06T12:52:31.492Z,101537.91
2023-02-06T12:54:38.200Z,101543.28
2023-02-06T12:56:45.525Z,101545.56
2023-02-06T12:58:57.420Z,101537.19
2023-02-06T13:01:33.716Z,101539.38
2023-02-06T13:03:42.785Z,101544.78
2023-02-06T13:05:49.543Z,101549.72
2023-02-06T13:07:56.064Z,101549.22
2023-02-06T13:10:03.213Z,101548.72
2023-02-06T13:12:15.377Z,101555.00
2023-02-06T13:14:21.545Z,101546.78
2023-02-06T13:16:38.625Z,101548.47
2023-02-06T13:19:03.075Z,101552.41
2023-02-06T13:21:17.627Z,101544.53
2023-02-06T13:23:24.911Z,101540.34
2023-02-06T13:25:51.822Z,101540.34
2023-02-06T13:27:54.565Z,101541.56
2023-02-06T13:30:16.184Z,101538.94
2023-02-06T13:32:53.612Z,101534.22
2023-02-06T13:35:05.911Z,101528.78
2023-02-06T13:37:32.891Z,101536.34
2023-02-06T13:39:35.998Z,101525.75
2023-02-06T13:41:39.016Z,101536.03
2023-02-06T13:43:44.706Z,101539.59
2023-02-06T13:45:49.669Z,101541.94
2023-02-06T13:48:22.430Z,101553.28
2023-02-06T13:50:38.946Z,101551.13
2023-02-06T13:52:53.426Z,101547.84
2023-02-06T13:55:13.389Z,101554.41
2023-02-06T13:57:52.748Z,101558.66
2023-02-06T14:00:00.196Z,101564.31
2023-02-06T14:02:11.747Z,101558.81
2023-02-06T14:04:20.411Z,101570.38
2023-02-06T14:06:49.014Z,101559.19
2023-02-06T14:09:04.419Z,101555.53
2023-02-06T14:11:26.473Z,101561.25
2023-02-06T14:13:39.020Z,101564.25
2023-02-06T14:15:52.536Z,101563.81
2023-02-06T14:18:11.264Z,101562.75
2023-02-06T14:20:29.862Z,101570.78
2023-02-06T14:22:38.611Z,101569.09
2023-02-06T14:25:04.847Z,101564.38
2023-02-06T14:27:29.391Z,101572.13
2023-02-06T14:29:49.388Z,101572.63
2023-02-06T14:32:24.619Z,101578.06
2023-02-06T14:34:40.439Z,101576.94
2023-02-06T14:36:54.940Z,101573.66
2023-02-06T14:39:22.782Z,101573.28
2023-02-06T14:41:30.219Z,101578.56
2023-02-06T14:43:37.501Z,101582.69
2023-02-06T14:45:44.819Z,101580.91
2023-02-06T14:47:48.944Z,101584.78
2023-02-06T14:49:53.403Z,101587.91
2023-02-06T14:51:56.463Z,101578.94
2023-02-06T14:54:02.073Z,101587.31
2023-02-06T14:56:10.004Z,101581.94
2023-02-06T14:58:21.222Z,101592.31
2023-02-06T15:00:24.825Z,101588.72
2023-02-06T15:02:30.746Z,101594.97
2023-02-06T15:04:33.743Z,101589.50
2023-02-06T15:06:38.823Z,101590.63
2023-02-06T15:08:48.862Z,101597.94
2023-02-06T15:10:58.630Z,101610.56
2023-02-06T15:13:02.181Z,101609.25
2023-02-06T15:15:18.452Z,101603.78
2023-02-06T15:17:23.382Z,101603.78
2023-02-06T15:19:28.069Z,101615.06
2023-02-06T15:21:31.104Z,101610.94
2023-02-06T15:23:46.156Z,101618.44
2023-02-06T15:25:59.545Z,101609.97
2023-02-06T15:28:05.311Z,101613.50
2023-02-06T15:30:20.645Z,101609.78
2023-02-06T15:32:29.196Z,101613.31
2023-02-06T15:34:32.727Z,101615.88
2023-02-06T15:36:38.072Z,101614.75
2023-02-06T15:38:43.638Z,101614.94
2023-02-06T15:40:46.834Z,101609.16
2023-02-06T15:42:51.507Z,101617.50
2023-02-06T15:44:54.672Z,101622.56
2023-02-06T15:47:01.637Z,101616.34
2023-02-06T15:49:05.228Z,101610.16
2023-02-06T15:51:20.631Z,101614.41
2023-02-06T15:53:31.114Z,101611.78
2023-02-06T15:55:36.285Z,101614.75
2023-02-06T15:57:44.107Z,101612.28
2023-02-06T15:59:47.602Z,101617.97
2023-02-06T16:01:52.047Z,101615.25
2023-02-06T16:04:05.662Z,101609.41
2023-02-06T16:06:15.717Z,101610.59
2023-02-06T16:08:21.496Z,101611.84
2023-02-06T16:10:27.001Z,101618.97
2023-02-06T16:12:32.348Z,101614.31
2023-02-06T16:14:37.247Z,101614.53
2023-02-06T16:16:40.389Z,101629.63
2023-02-06T16:18:43.333Z,101624.47
2023-02-06T16:20:48.268Z,101623.78
2023-02-06T16:22:51.911Z,101630.97
2023-02-06T16:25:12.404Z,101629.44
2023-02-06T16:27:21.512Z,101631.47
2023-02-06T16:29:27.266Z,101637.97
2023-02-06T16:31:32.479Z,101637.22
2023-02-06T16:33:38.821Z,101640.38
2023-02-06T16:35:41.811Z,101646.19
2023-02-06T16:37:46.542Z,101664.25
2023-02-06T16:39:49.761Z,101655.84
2023-02-06T16:41:53.599Z,101667.56
2023-02-06T16:43:57.600Z,101665.59
2023-02-06T16:46:02.616Z,101669.13
2023-02-06T16:48:12.061Z,101668.53
2023-02-06T16:50:16.592Z,101658.16
2023-02-06T16:52:22.877Z,101664.72
2023-02-06T16:54:30.260Z,101668.72
2023-02-06T16:56:33.178Z,101669.59
2023-02-06T16:58:36.378Z,101673.97
2023-02-06T17:00:39.690Z,101668.06
2023-02-06T17:02:42.628Z,101676.28
2023-02-06T17:04:45.598Z,101668.03
2023-02-06T17:06:48.934Z,101675.09
2023-02-06T17:08:53.496Z,101685.16
2023-02-06T17:10:57.798Z,101700.00
2023-02-06T17:13:00.637Z,101689.66
2023-02-06T17:15:03.939Z,101689.97
2023-02-06T17:17:06.878Z,101689.00
2023-02-06T17:19:12.659Z,101687.22
2023-02-06T17:21:19.100Z,101688.34
2023-02-06T17:23:22.660Z,101688.63
2023-02-06T17:25:25.708Z,101687.84
2023-02-06T17:27:30.083Z,101684.44
2023-02-06T17:29:33.741Z,101686.63
2023-02-06T17:31:36.725Z,101687.56
2023-02-06T17:33:40.464Z,101686.13
2023-02-06T17:35:43.542Z,101686.91
2023-02-06T17:37:46.982Z,101688.75
2023-02-06T17:39:50.977Z,101685.38
2023-02-06T17:41:53.954Z,101677.72
2023-02-06T17:43:58.535Z,101675.88
2023-02-06T17:46:01.491Z,101687.22
2023-02-06T17:48:04.975Z,101689.94
2023-02-06T17:50:09.227Z,101691.69
2023-02-06T17:52:12.210Z,101688.28
2023-02-06T17:54:15.168Z,101678.88
2023-02-06T17:56:18.287Z,101681.31
2023-02-06T17:58:21.546Z,101685.66
2023-02-06T18:00:26.465Z,101693.81
2023-02-06T18:02:29.405Z,101690.59
2023-02-06T18:04:32.317Z,101694.59
2023-02-06T18:06:36.731Z,101708.09
2023-02-06T18:08:40.007Z,101704.59
2023-02-06T18:10:42.857Z,101702.00
2023-02-06T18:12:46.134Z,101704.75
2023-02-06T18:14:50.393Z,101707.63
2023-02-06T18:16:54.779Z,101720.53
2023-02-06T18:18:57.927Z,101717.97
2023-02-06T18:21:01.438Z,101717.00
2023-02-06T18:23:04.327Z,101716.09
2023-02-06T18:25:07.886Z,101724.22
2023-02-06T18:27:11.853Z,101717.38
2023-02-06T18:29:15.230Z,101724.38
2023-02-06T18:31:24.139Z,101736.06
2023-02-06T18:33:28.859Z,101736.69
2023-02-06T18:35:31.784Z,101738.09
2023-02-06T18:37:35.424Z,101730.97
2023-02-06T18:39:39.015Z,101723.03
2023-02-06T18:42:01.061Z,101723.75
2023-02-06T18:44:06.386Z,101726.38
2023-02-06T18:46:09.456Z,101722.03
2023-02-06T18:48:13.673Z,101720.41
2023-02-06T18:50:20.866Z,101719.56
2023-02-06T18:52:23.981Z,101710.91
2023-02-06T18:54:27.068Z,101703.97
2023-02-06T18:56:30.980Z,101705.00
2023-02-06T18:58:34.017Z,101702.88
2023-02-06T19:00:38.328Z,101698.63
2023-02-06T19:02:41.742Z,101701.06
2023-02-06T19:04:44.757Z,101704.72
2023-02-06T19:06:49.863Z,101710.28
2023-02-06T19:08:52.754Z,101711.63
2023-02-06T19:10:57.903Z,101708.34
2023-02-06T19:13:00.703Z,101719.03
2023-02-06T19:15:05.044Z,101713.50
2023-02-06T19:17:08.585Z,101717.69
2023-02-06T19:19:12.084Z,101711.63
2023-02-06T19:21:16.626Z,101716.00
2023-02-06T19:23:21.026Z,101722.97
2023-02-06T19:25:23.915Z,101732.03
2023-02-06T19:27:26.907Z,101723.56
2023-02-06T19:29:35.469Z,101731.38
2023-02-06T19:31:40.905Z,101715.56
2023-02-06T19:33:43.866Z,101726.16
2023-02-06T19:35:47.036Z,101720.59
2023-02-06T19:37:49.905Z,101722.66
2023-02-06T19:39:54.345Z,101728.53
2023-02-06T19:41:57.228Z,101728.19
2023-02-06T19:44:03.507Z,101729.88
2023-02-06T19:46:08.756Z,101714.69
2023-02-06T19:48:15.081Z,101720.69
2023-02-06T19:50:18.022Z,101723.31
2023-02-06T19:52:21.494Z,101727.03
2023-02-06T19:54:24.324Z,101718.91
2023-02-06T19:56:39.561Z,101725.34
2023-02-06T19:58:42.412Z,101722.13
2023-02-06T20:00:45.633Z,101719.53
2023-02-06T20:02:48.519Z,101723.81
2023-02-06T20:04:51.462Z,101721.28
2023-02-06T20:06:56.086Z,101722.13
2023-02-06T20:08:58.980Z,101725.56
2023-02-06T20:11:05.626Z,101712.78
2023-02-06T20:13:10.141Z,101731.94
2023-02-06T20:15:13.239Z,101734.66
2023-02-06T20:17:17.742Z,101738.97
2023-02-06T20:19:23.382Z,101744.94
2023-02-06T20:21:29.362Z,101752.31
2023-02-06T20:23:38.667Z,101759.41
2023-02-06T20:25:41.705Z,101750.41
2023-02-06T20:27:44.715Z,101758.28
2023-02-06T20:29:49.196Z,101766.13
2023-02-06T20:31:52.799Z,101771.19
2023-02-06T20:33:56.386Z,101778.03
2023-02-06T20:35:59.267Z,101779.97
2023-02-06T20:38:02.247Z,101791.72
2023-02-06T20:40:06.466Z,101796.41
2023-02-06T20:42:09.679Z,101797.94
2023-02-06T20:44:14.005Z,101799.66
2023-02-06T20:46:20.207Z,101802.97
2023-02-06T20:48:23.555Z,101798.66
2023-02-06T20:50:29.180Z,101808.19
2023-02-06T20:52:32.722Z,101807.34
2023-02-06T20:54:35.747Z,101806.53
2023-02-06T20:56:39.646Z,101817.03
2023-02-06T20:58:42.903Z,101814.69
2023-02-06T21:00:45.941Z,101813.88
2023-02-06T21:02:52.072Z,101816.66
2023-02-06T21:04:55.950Z,101819.50
2023-02-06T21:06:58.862Z,101817.09
2023-02-06T21:09:02.320Z,101811.81
2023-02-06T21:11:05.662Z,101809.88
2023-02-06T21:13:08.440Z,101813.09
2023-02-06T21:15:11.388Z,101813.00
2023-02-06T21:17:14.178Z,101806.22
2023-02-06T21:19:19.956Z,101815.09
2023-02-06T21:21:22.509Z,101818.53
2023-02-06T21:23:25.315Z,101813.25
2023-02-06T21:25:28.160Z,101815.03
2023-02-06T21:27:32.222Z,101816.19
2023-02-06T21:29:34.982Z,101820.06
2023-02-06T21:31:39.119Z,101828.84
2023-02-06T21:33:42.102Z,101820.94
2023-02-06T21:35:51.981Z,101820.88
2023-02-06T21:37:54.825Z,101819.16
2023-02-06T21:39:58.032Z,101822.56
2023-02-06T21:42:01.925Z,101830.31
2023-02-06T21:44:05.570Z,101849.63
2023-02-06T21:46:09.353Z,101849.81
2023-02-06T21:48:12.405Z,101848.72
2023-02-06T21:50:15.458Z,101842.59
2023-02-06T21:52:20.026Z,101853.06
2023-02-06T21:54:25.028Z,101851.44
2023-02-06T21:56:28.558Z,101858.50
2023-02-06T21:58:31.750Z,101867.31
2023-02-06T22:00:34.666Z,101872.88
2023-02-06T22:02:38.415Z,101862.66
2023-02-06T22:04:41.826Z,101865.25
2023-02-06T22:06:44.953Z,101873.03
2023-02-06T22:08:55.874Z,101881.75
2023-02-06T22:10:59.030Z,101894.00
2023-02-06T22:13:02.067Z,101899.31
2023-02-06T22:15:05.509Z,101895.75
2023-02-06T22:17:08.378Z,101896.66
2023-02-06T22:19:11.627Z,101894.88
2023-02-06T22:21:16.552Z,101889.50
2023-02-06T22:23:19.428Z,101900.81
2023-02-06T22:25:23.998Z,101898.47
2023-02-06T22:27:26.876Z,101892.34
2023-02-06T22:29:30.607Z,101902.75
2023-02-06T22:31:35.678Z,101883.59
2023-02-06T22:33:39.014Z,101904.59
2023-02-06T22:35:41.865Z,101888.84
2023-02-06T22:37:44.903Z,101873.84
2023-02-06T22:39:47.691Z,101880.84
2023-02-06T22:41:52.382Z,101873.78
2023-02-06T22:43:55.381Z,101868.69
2023-02-06T22:45:58.355Z,101861.84
2023-02-06T22:48:01.353Z,101860.38
2023-02-06T22:50:05.132Z,101851.72
2023-02-06T22:52:28.092Z,101849.19
2023-02-06T22:54:31.140Z,101865.72
2023-02-06T22:56:37.302Z,101863.13
2023-02-06T22:58:42.097Z,101843.94
2023-02-06T23:00:45.005Z,101842.25
2023-02-06T23:02:47.986Z,101842.31
2023-02-06T23:04:50.917Z,101845.81
2023-02-06T23:06:54.521Z,101845.81
2023-02-06T23:08:57.944Z,101849.22
2023-02-06T23:11:01.226Z,101853.59
2023-02-06T23:13:05.356Z,101832.06
2023-02-06T23:15:10.865Z,101852.03
2023-02-06T23:17:14.228Z,101850.50
2023-02-06T23:19:17.946Z,101841.97
2023-02-06T23:21:22.825Z,101840.97
2023-02-06T23:23:26.428Z,101843.88
2023-02-06T23:25:29.305Z,101838.56
2023-02-06T23:27:32.346Z,101832.50
2023-02-06T23:29:35.226Z,101841.13
2023-02-06T23:31:39.753Z,101843.78
2023-02-06T23:33:42.792Z,101835.16
2023-02-06T23:35:46.146Z,101812.56
2023-02-06T23:37:49.267Z,101821.22
2023-02-06T23:39:52.353Z,101833.69
2023-02-06T23:41:55.323Z,101853.44
2023-02-06T23:44:00.150Z,101847.28
2023-02-06T23:46:03.707Z,101845.31
2023-02-06T23:48:08.301Z,101845.31
2023-02-06T23:50:11.722Z,101849.50
2023-02-06T23:52:15.076Z,101836.69
2023-02-06T23:54:18.599Z,101824.72
2023-02-06T23:56:23.702Z,101830.69
2023-02-06T23:58:26.916Z,101829.84
